< < Back
Terminal Aerodrome Forecast


Current Version              Previous Versions:   1  2  3  4  5  6  7  8  9  

Terminal Aerodrome Forecast

415
FTUS42 KGSP 261120
TAFHKY
TAF
KHKY 261120Z 2612/2712 30003KT P6SM FEW080 OVC110
     FM261700 31008G17KT P6SM BKN045
     FM262100 31012G20KT P6SM BKN060
     FM270000 31011G19KT P6SM SCT110
     FM270500 31007KT P6SM SCT250=

Latest METAR

535
SAUS70 KWBC 270100 RRB
MTRHKY
METAR KHKY 270053Z 33007KT 10SM CLR 02/M04 A2976 RMK AO2 SLP072
T00221044


USA.gov is the U.S. government's official web portal to all federal, state and local government web resources and services.